sensor_id;sensor_type;location;lat;lon;timestamp;temperature;humidity
55785;DHT22;41709;52.536;5.688;2023-09-07T00:01:26;21.60;77.30
55785;DHT22;41709;52.536;5.688;2023-09-07T00:03:52;21.60;77.40
55785;DHT22;41709;52.536;5.688;2023-09-07T00:06:17;21.50;77.50
55785;DHT22;41709;52.536;5.688;2023-09-07T00:08:44;21.50;77.50
55785;DHT22;41709;52.536;5.688;2023-09-07T00:11:09;21.50;77.70
55785;DHT22;41709;52.536;5.688;2023-09-07T00:13:36;21.50;77.60
55785;DHT22;41709;52.536;5.688;2023-09-07T00:16:05;21.50;77.70
55785;DHT22;41709;52.536;5.688;2023-09-07T00:18:31;21.50;77.80
55785;DHT22;41709;52.536;5.688;2023-09-07T00:20:58;21.50;77.80
55785;DHT22;41709;52.536;5.688;2023-09-07T00:23:24;21.40;77.70
55785;DHT22;41709;52.536;5.688;2023-09-07T00:25:49;21.50;77.90
55785;DHT22;41709;52.536;5.688;2023-09-07T00:28:15;21.50;78.10
55785;DHT22;41709;52.536;5.688;2023-09-07T00:30:40;21.50;78.10
55785;DHT22;41709;52.536;5.688;2023-09-07T00:33:07;21.50;78.00
55785;DHT22;41709;52.536;5.688;2023-09-07T00:35:32;21.40;77.90
55785;DHT22;41709;52.536;5.688;2023-09-07T00:37:58;21.50;78.30
55785;DHT22;41709;52.536;5.688;2023-09-07T00:40:24;21.40;78.20
55785;DHT22;41709;52.536;5.688;2023-09-07T00:42:50;21.40;78.00
55785;DHT22;41709;52.536;5.688;2023-09-07T00:45:16;21.40;78.10
55785;DHT22;41709;52.536;5.688;2023-09-07T00:47:42;21.40;78.30
55785;DHT22;41709;52.536;5.688;2023-09-07T00:50:08;21.40;78.10
55785;DHT22;41709;52.536;5.688;2023-09-07T00:52:34;21.40;78.20
55785;DHT22;41709;52.536;5.688;2023-09-07T00:55:04;21.40;78.30
55785;DHT22;41709;52.536;5.688;2023-09-07T00:57:30;21.40;78.20
55785;DHT22;41709;52.536;5.688;2023-09-07T00:59:56;21.40;78.30
55785;DHT22;41709;52.536;5.688;2023-09-07T01:02:21;21.30;78.30
55785;DHT22;41709;52.536;5.688;2023-09-07T01:04:47;21.30;78.40
55785;DHT22;41709;52.536;5.688;2023-09-07T01:07:20;21.40;78.40
55785;DHT22;41709;52.536;5.688;2023-09-07T01:09:54;21.30;78.40
55785;DHT22;41709;52.536;5.688;2023-09-07T01:12:21;21.30;78.60
55785;DHT22;41709;52.536;5.688;2023-09-07T01:14:47;21.30;78.60
55785;DHT22;41709;52.536;5.688;2023-09-07T01:17:12;21.30;78.80
55785;DHT22;41709;52.536;5.688;2023-09-07T01:19:39;21.20;78.70
55785;DHT22;41709;52.536;5.688;2023-09-07T01:22:07;21.20;78.80
55785;DHT22;41709;52.536;5.688;2023-09-07T01:24:34;21.20;78.80
55785;DHT22;41709;52.536;5.688;2023-09-07T01:27:01;21.20;79.00
55785;DHT22;41709;52.536;5.688;2023-09-07T01:29:29;21.10;79.00
55785;DHT22;41709;52.536;5.688;2023-09-07T01:31:56;21.10;79.00
55785;DHT22;41709;52.536;5.688;2023-09-07T01:34:22;21.10;79.00
55785;DHT22;41709;52.536;5.688;2023-09-07T01:36:49;21.10;79.30
55785;DHT22;41709;52.536;5.688;2023-09-07T01:39:14;21.10;79.40
55785;DHT22;41709;52.536;5.688;2023-09-07T01:41:40;21.10;79.50
55785;DHT22;41709;52.536;5.688;2023-09-07T01:44:06;21.00;79.50
55785;DHT22;41709;52.536;5.688;2023-09-07T01:46:31;21.00;79.50
55785;DHT22;41709;52.536;5.688;2023-09-07T01:48:57;21.00;79.50
55785;DHT22;41709;52.536;5.688;2023-09-07T01:51:23;20.90;79.40
55785;DHT22;41709;52.536;5.688;2023-09-07T01:53:48;20.90;79.40
55785;DHT22;41709;52.536;5.688;2023-09-07T01:56:16;20.90;79.60
55785;DHT22;41709;52.536;5.688;2023-09-07T01:58:41;20.90;79.60
55785;DHT22;41709;52.536;5.688;2023-09-07T02:01:19;20.90;79.80
55785;DHT22;41709;52.536;5.688;2023-09-07T02:03:44;20.90;79.80
55785;DHT22;41709;52.536;5.688;2023-09-07T02:06:10;20.80;79.80
55785;DHT22;41709;52.536;5.688;2023-09-07T02:08:36;20.80;79.90
55785;DHT22;41709;52.536;5.688;2023-09-07T02:11:01;20.70;80.10
55785;DHT22;41709;52.536;5.688;2023-09-07T02:13:28;20.70;80.20
55785;DHT22;41709;52.536;5.688;2023-09-07T02:15:53;20.70;80.30
55785;DHT22;41709;52.536;5.688;2023-09-07T02:18:19;20.70;80.20
55785;DHT22;41709;52.536;5.688;2023-09-07T02:20:45;20.70;80.30
55785;DHT22;41709;52.536;5.688;2023-09-07T02:23:10;20.60;80.40
55785;DHT22;41709;52.536;5.688;2023-09-07T02:25:36;20.60;80.40
55785;DHT22;41709;52.536;5.688;2023-09-07T02:28:02;20.60;80.50
55785;DHT22;41709;52.536;5.688;2023-09-07T02:30:27;20.60;80.70
55785;DHT22;41709;52.536;5.688;2023-09-07T02:32:53;20.50;80.40
55785;DHT22;41709;52.536;5.688;2023-09-07T02:35:18;20.50;80.70
55785;DHT22;41709;52.536;5.688;2023-09-07T02:37:44;20.50;80.70
55785;DHT22;41709;52.536;5.688;2023-09-07T02:40:10;20.50;80.80
55785;DHT22;41709;52.536;5.688;2023-09-07T02:42:37;20.40;80.80
55785;DHT22;41709;52.536;5.688;2023-09-07T02:45:02;20.40;81.00
55785;DHT22;41709;52.536;5.688;2023-09-07T02:47:28;20.40;81.00
55785;DHT22;41709;52.536;5.688;2023-09-07T02:49:54;20.30;81.20
55785;DHT22;41709;52.536;5.688;2023-09-07T02:52:20;20.30;81.30
55785;DHT22;41709;52.536;5.688;2023-09-07T02:54:45;20.30;81.60
55785;DHT22;41709;52.536;5.688;2023-09-07T02:57:11;20.30;81.50
55785;DHT22;41709;52.536;5.688;2023-09-07T02:59:37;20.20;81.50
55785;DHT22;41709;52.536;5.688;2023-09-07T03:02:03;20.20;81.60
55785;DHT22;41709;52.536;5.688;2023-09-07T03:04:29;20.20;81.60
55785;DHT22;41709;52.536;5.688;2023-09-07T03:06:54;20.20;81.80
55785;DHT22;41709;52.536;5.688;2023-09-07T03:09:20;20.20;81.80
55785;DHT22;41709;52.536;5.688;2023-09-07T03:11:48;20.20;81.70
55785;DHT22;41709;52.536;5.688;2023-09-07T03:14:14;20.10;81.80
55785;DHT22;41709;52.536;5.688;2023-09-07T03:16:40;20.10;81.80
55785;DHT22;41709;52.536;5.688;2023-09-07T03:19:05;20.10;81.90
55785;DHT22;41709;52.536;5.688;2023-09-07T03:21:32;20.10;82.00
55785;DHT22;41709;52.536;5.688;2023-09-07T03:23:58;20.00;82.00
55785;DHT22;41709;52.536;5.688;2023-09-07T03:26:24;20.00;82.10
55785;DHT22;41709;52.536;5.688;2023-09-07T03:28:50;20.00;82.40
55785;DHT22;41709;52.536;5.688;2023-09-07T03:31:16;20.00;82.40
55785;DHT22;41709;52.536;5.688;2023-09-07T03:33:41;19.90;82.30
55785;DHT22;41709;52.536;5.688;2023-09-07T03:36:07;19.90;82.30
55785;DHT22;41709;52.536;5.688;2023-09-07T03:38:34;19.90;82.30
55785;DHT22;41709;52.536;5.688;2023-09-07T03:41:00;19.90;82.40
55785;DHT22;41709;52.536;5.688;2023-09-07T03:43:26;19.90;82.40
55785;DHT22;41709;52.536;5.688;2023-09-07T03:45:52;19.80;82.50
55785;DHT22;41709;52.536;5.688;2023-09-07T03:48:17;19.80;82.50
55785;DHT22;41709;52.536;5.688;2023-09-07T03:50:43;19.80;82.50
55785;DHT22;41709;52.536;5.688;2023-09-07T03:53:08;19.80;82.50
55785;DHT22;41709;52.536;5.688;2023-09-07T03:55:41;19.70;82.60
55785;DHT22;41709;52.536;5.688;2023-09-07T03:58:08;19.70;82.80
55785;DHT22;41709;52.536;5.688;2023-09-07T04:00:34;19.60;82.90
55785;DHT22;41709;52.536;5.688;2023-09-07T04:02:59;19.60;83.00
55785;DHT22;41709;52.536;5.688;2023-09-07T04:05:25;19.60;83.20
55785;DHT22;41709;52.536;5.688;2023-09-07T04:07:51;19.50;83.30
55785;DHT22;41709;52.536;5.688;2023-09-07T04:10:16;19.50;83.40
55785;DHT22;41709;52.536;5.688;2023-09-07T04:12:42;19.40;83.50
55785;DHT22;41709;52.536;5.688;2023-09-07T04:15:08;19.40;83.50
55785;DHT22;41709;52.536;5.688;2023-09-07T04:17:33;19.40;83.70
55785;DHT22;41709;52.536;5.688;2023-09-07T04:20:09;19.40;83.80
55785;DHT22;41709;52.536;5.688;2023-09-07T04:22:38;19.30;83.90
55785;DHT22;41709;52.536;5.688;2023-09-07T04:25:03;19.40;84.10
55785;DHT22;41709;52.536;5.688;2023-09-07T04:27:30;19.30;84.00
55785;DHT22;41709;52.536;5.688;2023-09-07T04:29:56;19.30;84.00
55785;DHT22;41709;52.536;5.688;2023-09-07T04:32:22;19.30;84.20
55785;DHT22;41709;52.536;5.688;2023-09-07T04:34:47;19.30;84.20
55785;DHT22;41709;52.536;5.688;2023-09-07T04:37:13;19.20;84.20
55785;DHT22;41709;52.536;5.688;2023-09-07T04:39:38;19.20;84.20
55785;DHT22;41709;52.536;5.688;2023-09-07T04:42:05;19.20;84.30
55785;DHT22;41709;52.536;5.688;2023-09-07T04:44:31;19.20;84.30
55785;DHT22;41709;52.536;5.688;2023-09-07T04:46:56;19.10;84.40
55785;DHT22;41709;52.536;5.688;2023-09-07T04:49:23;19.10;84.50
55785;DHT22;41709;52.536;5.688;2023-09-07T04:51:53;19.10;84.60
55785;DHT22;41709;52.536;5.688;2023-09-07T04:54:25;19.00;84.60
55785;DHT22;41709;52.536;5.688;2023-09-07T04:56:50;19.00;84.80
55785;DHT22;41709;52.536;5.688;2023-09-07T04:59:16;19.00;84.80
55785;DHT22;41709;52.536;5.688;2023-09-07T05:01:41;19.00;84.90
55785;DHT22;41709;52.536;5.688;2023-09-07T05:04:07;19.00;84.90
55785;DHT22;41709;52.536;5.688;2023-09-07T05:06:32;19.00;85.00
55785;DHT22;41709;52.536;5.688;2023-09-07T05:09:03;18.90;85.10
55785;DHT22;41709;52.536;5.688;2023-09-07T05:11:31;18.90;85.30
55785;DHT22;41709;52.536;5.688;2023-09-07T05:13:59;18.90;85.30
55785;DHT22;41709;52.536;5.688;2023-09-07T05:16:25;18.90;85.30
55785;DHT22;41709;52.536;5.688;2023-09-07T05:18:50;18.90;85.40
55785;DHT22;41709;52.536;5.688;2023-09-07T05:21:18;18.90;85.50
55785;DHT22;41709;52.536;5.688;2023-09-07T05:23:44;18.90;85.50
55785;DHT22;41709;52.536;5.688;2023-09-07T05:26:10;18.80;85.60
55785;DHT22;41709;52.536;5.688;2023-09-07T05:28:35;18.80;85.90
55785;DHT22;41709;52.536;5.688;2023-09-07T05:31:01;18.80;85.90
55785;DHT22;41709;52.536;5.688;2023-09-07T05:33:27;18.70;85.90
55785;DHT22;41709;52.536;5.688;2023-09-07T05:35:52;18.70;86.00
55785;DHT22;41709;52.536;5.688;2023-09-07T05:38:18;18.70;86.10
55785;DHT22;41709;52.536;5.688;2023-09-07T05:40:44;18.70;86.10
55785;DHT22;41709;52.536;5.688;2023-09-07T05:43:10;18.70;86.20
55785;DHT22;41709;52.536;5.688;2023-09-07T05:45:38;18.70;86.30
55785;DHT22;41709;52.536;5.688;2023-09-07T05:48:05;18.70;86.30
55785;DHT22;41709;52.536;5.688;2023-09-07T05:50:36;18.70;86.20
55785;DHT22;41709;52.536;5.688;2023-09-07T05:53:02;18.80;86.20
55785;DHT22;41709;52.536;5.688;2023-09-07T05:55:28;18.80;86.10
55785;DHT22;41709;52.536;5.688;2023-09-07T05:57:55;18.80;86.20
55785;DHT22;41709;52.536;5.688;2023-09-07T06:00:21;18.90;86.00
55785;DHT22;41709;52.536;5.688;2023-09-07T06:02:46;18.90;85.90
55785;DHT22;41709;52.536;5.688;2023-09-07T06:05:13;18.90;86.10
55785;DHT22;41709;52.536;5.688;2023-09-07T06:07:39;19.00;85.90
55785;DHT22;41709;52.536;5.688;2023-09-07T06:10:04;19.10;86.70
55785;DHT22;41709;52.536;5.688;2023-09-07T06:12:31;19.20;85.20
55785;DHT22;41709;52.536;5.688;2023-09-07T06:14:57;19.30;84.70
55785;DHT22;41709;52.536;5.688;2023-09-07T06:17:23;19.40;84.40
55785;DHT22;41709;52.536;5.688;2023-09-07T06:19:48;19.40;83.90
55785;DHT22;41709;52.536;5.688;2023-09-07T06:22:14;19.40;84.50
55785;DHT22;41709;52.536;5.688;2023-09-07T06:24:39;19.50;84.10
55785;DHT22;41709;52.536;5.688;2023-09-07T06:27:05;19.60;83.80
55785;DHT22;41709;52.536;5.688;2023-09-07T06:29:31;19.70;83.60
55785;DHT22;41709;52.536;5.688;2023-09-07T06:31:56;19.80;83.30
55785;DHT22;41709;52.536;5.688;2023-09-07T06:34:22;20.00;82.90
55785;DHT22;41709;52.536;5.688;2023-09-07T06:36:47;20.20;82.30
55785;DHT22;41709;52.536;5.688;2023-09-07T06:39:13;20.30;82.10
55785;DHT22;41709;52.536;5.688;2023-09-07T06:41:39;20.40;81.20
55785;DHT22;41709;52.536;5.688;2023-09-07T06:44:04;20.60;81.30
55785;DHT22;41709;52.536;5.688;2023-09-07T06:46:30;20.70;80.40
55785;DHT22;41709;52.536;5.688;2023-09-07T06:48:55;20.90;80.10
55785;DHT22;41709;52.536;5.688;2023-09-07T06:51:21;21.10;79.80
55785;DHT22;41709;52.536;5.688;2023-09-07T06:53:46;21.30;79.60
55785;DHT22;41709;52.536;5.688;2023-09-07T06:56:12;21.50;78.40
55785;DHT22;41709;52.536;5.688;2023-09-07T06:58:38;21.70;77.70
55785;DHT22;41709;52.536;5.688;2023-09-07T07:01:03;21.90;76.90
55785;DHT22;41709;52.536;5.688;2023-09-07T07:03:30;22.10;76.30
55785;DHT22;41709;52.536;5.688;2023-09-07T07:05:56;22.30;76.30
55785;DHT22;41709;52.536;5.688;2023-09-07T07:08:23;22.40;75.70
55785;DHT22;41709;52.536;5.688;2023-09-07T07:10:49;22.70;75.10
55785;DHT22;41709;52.536;5.688;2023-09-07T07:13:14;22.90;74.80
55785;DHT22;41709;52.536;5.688;2023-09-07T07:15:41;23.10;74.00
55785;DHT22;41709;52.536;5.688;2023-09-07T07:18:07;23.30;73.40
55785;DHT22;41709;52.536;5.688;2023-09-07T07:20:37;23.50;72.70
55785;DHT22;41709;52.536;5.688;2023-09-07T07:23:04;23.80;72.10
55785;DHT22;41709;52.536;5.688;2023-09-07T07:25:29;24.00;71.20
55785;DHT22;41709;52.536;5.688;2023-09-07T07:27:59;24.20;71.10
55785;DHT22;41709;52.536;5.688;2023-09-07T07:30:27;24.30;70.50
55785;DHT22;41709;52.536;5.688;2023-09-07T07:32:55;24.40;70.00
55785;DHT22;41709;52.536;5.688;2023-09-07T07:35:21;24.40;70.00
55785;DHT22;41709;52.536;5.688;2023-09-07T07:37:46;24.30;69.70
55785;DHT22;41709;52.536;5.688;2023-09-07T07:40:12;24.20;70.00
55785;DHT22;41709;52.536;5.688;2023-09-07T07:42:37;24.00;70.10
55785;DHT22;41709;52.536;5.688;2023-09-07T07:45:03;23.90;70.70
55785;DHT22;41709;52.536;5.688;2023-09-07T07:47:29;23.80;70.70
55785;DHT22;41709;52.536;5.688;2023-09-07T07:49:55;23.60;71.30
55785;DHT22;41709;52.536;5.688;2023-09-07T07:52:20;23.50;71.60
55785;DHT22;41709;52.536;5.688;2023-09-07T07:54:47;23.40;71.20
55785;DHT22;41709;52.536;5.688;2023-09-07T07:57:12;23.40;71.50
55785;DHT22;41709;52.536;5.688;2023-09-07T07:59:38;23.30;71.60
55785;DHT22;41709;52.536;5.688;2023-09-07T08:02:04;23.20;72.20
55785;DHT22;41709;52.536;5.688;2023-09-07T08:04:31;23.10;72.90
55785;DHT22;41709;52.536;5.688;2023-09-07T08:06:58;23.10;71.70
55785;DHT22;41709;52.536;5.688;2023-09-07T08:09:32;23.10;72.00
55785;DHT22;41709;52.536;5.688;2023-09-07T08:11:58;23.10;72.50
55785;DHT22;41709;52.536;5.688;2023-09-07T08:14:25;23.10;72.50
55785;DHT22;41709;52.536;5.688;2023-09-07T08:16:52;23.00;73.10
55785;DHT22;41709;52.536;5.688;2023-09-07T08:19:18;23.00;72.30
55785;DHT22;41709;52.536;5.688;2023-09-07T08:21:44;23.00;72.50
55785;DHT22;41709;52.536;5.688;2023-09-07T08:24:11;23.00;72.70
55785;DHT22;41709;52.536;5.688;2023-09-07T08:26:37;23.10;72.50
55785;DHT22;41709;52.536;5.688;2023-09-07T08:29:03;23.00;73.10
55785;DHT22;41709;52.536;5.688;2023-09-07T08:31:34;23.00;73.20
55785;DHT22;41709;52.536;5.688;2023-09-07T08:34:01;23.10;72.80
55785;DHT22;41709;52.536;5.688;2023-09-07T08:36:29;23.10;73.00
55785;DHT22;41709;52.536;5.688;2023-09-07T08:38:58;23.10;73.20
55785;DHT22;41709;52.536;5.688;2023-09-07T08:41:26;23.20;73.40
55785;DHT22;41709;52.536;5.688;2023-09-07T08:43:55;23.20;73.30
55785;DHT22;41709;52.536;5.688;2023-09-07T08:46:23;23.20;73.60
55785;DHT22;41709;52.536;5.688;2023-09-07T08:48:50;23.30;73.30
55785;DHT22;41709;52.536;5.688;2023-09-07T08:51:16;23.30;73.40
55785;DHT22;41709;52.536;5.688;2023-09-07T08:53:43;23.30;73.40
55785;DHT22;41709;52.536;5.688;2023-09-07T08:56:16;23.40;73.70
55785;DHT22;41709;52.536;5.688;2023-09-07T08:58:42;23.40;73.40
55785;DHT22;41709;52.536;5.688;2023-09-07T09:01:10;23.40;72.90
55785;DHT22;41709;52.536;5.688;2023-09-07T09:03:36;23.50;73.10
55785;DHT22;41709;52.536;5.688;2023-09-07T09:06:03;23.60;73.90
55785;DHT22;41709;52.536;5.688;2023-09-07T09:08:29;23.60;73.30
55785;DHT22;41709;52.536;5.688;2023-09-07T09:11:02;23.70;72.60
55785;DHT22;41709;52.536;5.688;2023-09-07T09:13:31;23.80;72.90
55785;DHT22;41709;52.536;5.688;2023-09-07T09:16:00;23.80;71.50
55785;DHT22;41709;52.536;5.688;2023-09-07T09:18:26;23.90;72.90
55785;DHT22;41709;52.536;5.688;2023-09-07T09:20:53;24.00;73.40
55785;DHT22;41709;52.536;5.688;2023-09-07T09:23:20;24.00;74.00
55785;DHT22;41709;52.536;5.688;2023-09-07T09:25:47;24.10;73.90
55785;DHT22;41709;52.536;5.688;2023-09-07T09:28:13;24.10;73.50
55785;DHT22;41709;52.536;5.688;2023-09-07T09:30:38;24.10;74.00
55785;DHT22;41709;52.536;5.688;2023-09-07T09:33:05;24.10;73.40
55785;DHT22;41709;52.536;5.688;2023-09-07T09:35:32;24.10;73.60
55785;DHT22;41709;52.536;5.688;2023-09-07T09:38:01;24.20;73.40
55785;DHT22;41709;52.536;5.688;2023-09-07T09:40:33;24.20;74.00
55785;DHT22;41709;52.536;5.688;2023-09-07T09:43:02;24.30;74.10
55785;DHT22;41709;52.536;5.688;2023-09-07T09:45:29;24.30;73.30
55785;DHT22;41709;52.536;5.688;2023-09-07T09:47:55;24.40;72.80
55785;DHT22;41709;52.536;5.688;2023-09-07T09:50:26;24.40;72.90
55785;DHT22;41709;52.536;5.688;2023-09-07T09:52:52;24.40;73.40
55785;DHT22;41709;52.536;5.688;2023-09-07T09:55:22;24.40;73.30
55785;DHT22;41709;52.536;5.688;2023-09-07T09:57:47;24.40;73.00
55785;DHT22;41709;52.536;5.688;2023-09-07T10:00:14;24.50;74.10
55785;DHT22;41709;52.536;5.688;2023-09-07T10:02:51;24.60;72.80
55785;DHT22;41709;52.536;5.688;2023-09-07T10:05:20;24.70;74.10
55785;DHT22;41709;52.536;5.688;2023-09-07T10:07:49;24.70;72.60
55785;DHT22;41709;52.536;5.688;2023-09-07T10:10:17;24.80;71.80
55785;DHT22;41709;52.536;5.688;2023-09-07T10:12:52;24.90;72.20
55785;DHT22;41709;52.536;5.688;2023-09-07T10:15:29;25.00;72.50
55785;DHT22;41709;52.536;5.688;2023-09-07T10:18:15;25.10;71.70
55785;DHT22;41709;52.536;5.688;2023-09-07T10:20:49;25.10;71.80
55785;DHT22;41709;52.536;5.688;2023-09-07T10:23:15;25.20;71.10
55785;DHT22;41709;52.536;5.688;2023-09-07T10:25:41;25.30;70.90
55785;DHT22;41709;52.536;5.688;2023-09-07T10:28:26;25.30;71.80
55785;DHT22;41709;52.536;5.688;2023-09-07T10:31:06;25.40;71.00
55785;DHT22;41709;52.536;5.688;2023-09-07T10:33:35;25.50;70.80
55785;DHT22;41709;52.536;5.688;2023-09-07T10:36:03;25.50;70.40
55785;DHT22;41709;52.536;5.688;2023-09-07T10:38:29;25.60;70.40
55785;DHT22;41709;52.536;5.688;2023-09-07T10:40:59;25.60;70.40
55785;DHT22;41709;52.536;5.688;2023-09-07T10:43:29;25.70;69.90
55785;DHT22;41709;52.536;5.688;2023-09-07T10:45:56;25.70;70.60
55785;DHT22;41709;52.536;5.688;2023-09-07T10:48:23;25.70;69.40
55785;DHT22;41709;52.536;5.688;2023-09-07T10:50:49;25.80;69.20
55785;DHT22;41709;52.536;5.688;2023-09-07T10:53:25;25.90;68.90
55785;DHT22;41709;52.536;5.688;2023-09-07T10:55:52;25.90;69.60
55785;DHT22;41709;52.536;5.688;2023-09-07T10:58:26;25.90;69.60
55785;DHT22;41709;52.536;5.688;2023-09-07T11:00:56;25.90;71.10
55785;DHT22;41709;52.536;5.688;2023-09-07T11:03:22;26.00;70.00
55785;DHT22;41709;52.536;5.688;2023-09-07T11:05:49;26.00;69.70
55785;DHT22;41709;52.536;5.688;2023-09-07T11:08:16;26.00;69.60
55785;DHT22;41709;52.536;5.688;2023-09-07T11:10:42;26.00;70.10
55785;DHT22;41709;52.536;5.688;2023-09-07T11:13:09;26.10;70.50
55785;DHT22;41709;52.536;5.688;2023-09-07T11:15:35;26.10;70.20
55785;DHT22;41709;52.536;5.688;2023-09-07T11:18:04;26.10;70.40
55785;DHT22;41709;52.536;5.688;2023-09-07T11:20:31;26.10;69.60
55785;DHT22;41709;52.536;5.688;2023-09-07T11:22:57;26.10;70.40
55785;DHT22;41709;52.536;5.688;2023-09-07T11:25:22;26.10;70.30
55785;DHT22;41709;52.536;5.688;2023-09-07T11:27:48;26.20;70.00
55785;DHT22;41709;52.536;5.688;2023-09-07T11:30:14;26.10;69.80
55785;DHT22;41709;52.536;5.688;2023-09-07T11:32:39;26.20;69.30
55785;DHT22;41709;52.536;5.688;2023-09-07T11:35:09;26.20;69.30
55785;DHT22;41709;52.536;5.688;2023-09-07T11:37:35;26.20;69.70
55785;DHT22;41709;52.536;5.688;2023-09-07T11:40:01;26.40;69.10
55785;DHT22;41709;52.536;5.688;2023-09-07T11:42:29;26.40;69.50
55785;DHT22;41709;52.536;5.688;2023-09-07T11:44:55;26.30;69.20
55785;DHT22;41709;52.536;5.688;2023-09-07T11:47:21;26.40;69.30
55785;DHT22;41709;52.536;5.688;2023-09-07T11:49:46;26.40;69.40
55785;DHT22;41709;52.536;5.688;2023-09-07T11:52:14;26.50;69.20
55785;DHT22;41709;52.536;5.688;2023-09-07T11:54:40;26.60;68.50
55785;DHT22;41709;52.536;5.688;2023-09-07T11:57:05;26.60;68.20
55785;DHT22;41709;52.536;5.688;2023-09-07T11:59:31;26.70;67.80
55785;DHT22;41709;52.536;5.688;2023-09-07T12:01:57;26.70;67.80
55785;DHT22;41709;52.536;5.688;2023-09-07T12:04:23;26.70;68.30
55785;DHT22;41709;52.536;5.688;2023-09-07T12:06:49;26.80;67.70
55785;DHT22;41709;52.536;5.688;2023-09-07T12:09:14;26.90;67.50
55785;DHT22;41709;52.536;5.688;2023-09-07T12:11:42;26.90;67.30
55785;DHT22;41709;52.536;5.688;2023-09-07T12:14:09;26.90;66.70
55785;DHT22;41709;52.536;5.688;2023-09-07T12:16:34;26.80;67.60
55785;DHT22;41709;52.536;5.688;2023-09-07T12:19:00;26.80;66.50
55785;DHT22;41709;52.536;5.688;2023-09-07T12:21:25;26.80;67.70
55785;DHT22;41709;52.536;5.688;2023-09-07T12:23:51;26.80;67.20
55785;DHT22;41709;52.536;5.688;2023-09-07T12:26:17;26.90;66.90
55785;DHT22;41709;52.536;5.688;2023-09-07T12:28:44;27.00;66.40
55785;DHT22;41709;52.536;5.688;2023-09-07T12:31:10;27.00;64.90
55785;DHT22;41709;52.536;5.688;2023-09-07T12:33:37;27.00;65.70
55785;DHT22;41709;52.536;5.688;2023-09-07T12:36:02;27.10;65.40
55785;DHT22;41709;52.536;5.688;2023-09-07T12:38:28;27.20;64.60
55785;DHT22;41709;52.536;5.688;2023-09-07T12:40:55;27.20;64.10
55785;DHT22;41709;52.536;5.688;2023-09-07T12:43:20;27.30;62.90
55785;DHT22;41709;52.536;5.688;2023-09-07T12:45:46;27.30;62.40
55785;DHT22;41709;52.536;5.688;2023-09-07T12:48:12;27.30;63.00
55785;DHT22;41709;52.536;5.688;2023-09-07T12:50:38;27.30;62.30
55785;DHT22;41709;52.536;5.688;2023-09-07T12:53:05;27.40;61.20
55785;DHT22;41709;52.536;5.688;2023-09-07T12:55:31;27.30;61.90
55785;DHT22;41709;52.536;5.688;2023-09-07T12:57:57;27.40;61.90
55785;DHT22;41709;52.536;5.688;2023-09-07T13:00:22;27.40;59.40
55785;DHT22;41709;52.536;5.688;2023-09-07T13:02:48;27.30;59.50
55785;DHT22;41709;52.536;5.688;2023-09-07T13:05:13;27.40;60.00
55785;DHT22;41709;52.536;5.688;2023-09-07T13:07:39;27.40;59.40
55785;DHT22;41709;52.536;5.688;2023-09-07T13:10:06;27.50;60.60
55785;DHT22;41709;52.536;5.688;2023-09-07T13:12:32;27.60;59.00
55785;DHT22;41709;52.536;5.688;2023-09-07T13:14:58;27.70;58.60
55785;DHT22;41709;52.536;5.688;2023-09-07T13:17:23;27.80;58.10
55785;DHT22;41709;52.536;5.688;2023-09-07T13:19:49;27.90;58.70
55785;DHT22;41709;52.536;5.688;2023-09-07T13:22:16;27.90;59.70
55785;DHT22;41709;52.536;5.688;2023-09-07T13:24:42;28.00;58.70
55785;DHT22;41709;52.536;5.688;2023-09-07T13:27:08;28.00;58.90
55785;DHT22;41709;52.536;5.688;2023-09-07T13:29:35;28.00;59.20
55785;DHT22;41709;52.536;5.688;2023-09-07T13:32:01;28.10;59.80
55785;DHT22;41709;52.536;5.688;2023-09-07T13:34:27;28.30;57.60
55785;DHT22;41709;52.536;5.688;2023-09-07T13:36:53;28.40;58.70
55785;DHT22;41709;52.536;5.688;2023-09-07T13:39:20;28.70;58.00
55785;DHT22;41709;52.536;5.688;2023-09-07T13:41:45;28.90;58.40
55785;DHT22;41709;52.536;5.688;2023-09-07T13:44:13;29.10;57.40
55785;DHT22;41709;52.536;5.688;2023-09-07T13:46:38;29.40;57.20
55785;DHT22;41709;52.536;5.688;2023-09-07T13:49:04;29.70;56.40
55785;DHT22;41709;52.536;5.688;2023-09-07T13:51:30;29.90;55.80
55785;DHT22;41709;52.536;5.688;2023-09-07T13:54:00;30.00;55.80
55785;DHT22;41709;52.536;5.688;2023-09-07T13:56:26;30.00;55.90
55785;DHT22;41709;52.536;5.688;2023-09-07T13:58:52;30.10;55.70
55785;DHT22;41709;52.536;5.688;2023-09-07T14:01:17;30.10;55.30
55785;DHT22;41709;52.536;5.688;2023-09-07T14:03:43;30.20;56.20
55785;DHT22;41709;52.536;5.688;2023-09-07T14:06:08;30.40;55.10
55785;DHT22;41709;52.536;5.688;2023-09-07T14:08:34;30.50;54.90
55785;DHT22;41709;52.536;5.688;2023-09-07T14:11:00;30.60;55.20
55785;DHT22;41709;52.536;5.688;2023-09-07T14:13:26;30.80;55.60
55785;DHT22;41709;52.536;5.688;2023-09-07T14:15:51;30.90;54.40
55785;DHT22;41709;52.536;5.688;2023-09-07T14:18:17;30.90;54.30
55785;DHT22;41709;52.536;5.688;2023-09-07T14:20:43;31.10;54.70
55785;DHT22;41709;52.536;5.688;2023-09-07T14:23:08;31.20;54.50
55785;DHT22;41709;52.536;5.688;2023-09-07T14:25:34;31.40;54.30
55785;DHT22;41709;52.536;5.688;2023-09-07T14:28:00;31.60;53.80
55785;DHT22;41709;52.536;5.688;2023-09-07T14:30:25;31.70;53.50
55785;DHT22;41709;52.536;5.688;2023-09-07T14:32:51;31.60;52.80
55785;DHT22;41709;52.536;5.688;2023-09-07T14:35:17;31.70;53.40
55785;DHT22;41709;52.536;5.688;2023-09-07T14:37:42;31.60;53.50
55785;DHT22;41709;52.536;5.688;2023-09-07T14:40:08;31.70;52.50
55785;DHT22;41709;52.536;5.688;2023-09-07T14:42:34;31.80;52.80
55785;DHT22;41709;52.536;5.688;2023-09-07T14:45:00;31.90;52.80
55785;DHT22;41709;52.536;5.688;2023-09-07T14:47:30;32.00;53.40
55785;DHT22;41709;52.536;5.688;2023-09-07T14:49:55;32.10;52.10
55785;DHT22;41709;52.536;5.688;2023-09-07T14:52:22;31.90;51.80
55785;DHT22;41709;52.536;5.688;2023-09-07T14:54:50;31.70;52.50
55785;DHT22;41709;52.536;5.688;2023-09-07T14:57:15;31.70;52.50
55785;DHT22;41709;52.536;5.688;2023-09-07T14:59:41;31.70;52.30
55785;DHT22;41709;52.536;5.688;2023-09-07T15:02:07;31.60;53.40
55785;DHT22;41709;52.536;5.688;2023-09-07T15:04:33;31.60;52.50
55785;DHT22;41709;52.536;5.688;2023-09-07T15:06:59;31.40;52.60
55785;DHT22;41709;52.536;5.688;2023-09-07T15:09:25;31.40;52.60
55785;DHT22;41709;52.536;5.688;2023-09-07T15:11:51;31.40;53.70
55785;DHT22;41709;52.536;5.688;2023-09-07T15:14:18;31.30;53.00
55785;DHT22;41709;52.536;5.688;2023-09-07T15:16:44;31.20;52.70
55785;DHT22;41709;52.536;5.688;2023-09-07T15:19:09;31.20;52.40
55785;DHT22;41709;52.536;5.688;2023-09-07T15:21:35;31.20;52.90
55785;DHT22;41709;52.536;5.688;2023-09-07T15:24:01;31.20;52.90
55785;DHT22;41709;52.536;5.688;2023-09-07T15:26:26;31.10;53.00